グアヤキル空港の過去48時間の天気

グアヤキル空港 (Guayaquil / Simon Bolivar)

現在時刻: 8/18 08:17 -05 (8/18 13:17 UTC) 以下の時間は現地時間です。

過去48時間のMETAR気象情報
時間 風向 風速(m/s) 視程 気温(℃) 湿度(%) 気圧(hPa) 天気現象
18 08:00 南西 5 10km以上 22 83 1011
18 07:00 南西 5 10km以上 22 83 1011
18 06:00 南西 4 10km以上 22 83 1011
18 05:00 南西 3 10km以上 21 88 1011
18 04:00 西南西 3 10km以上 22 83 1011
18 03:00 西 3 10km以上 22 83 1011
18 02:00 南西 5 10km以上 22 83 1011
18 01:00 南西 6 10km以上 22 83 1012
18 00:00 南西 5 10km以上 22 83 1012
17 23:00 南西 6 10km以上 22 83 1012
17 22:00 南西 7 10km以上 22 83 1012
17 21:00 南西 5 10km以上 22 83 1012
17 20:00 南西 5 10km以上 23 83 1012
17 19:00 南西 7 10km以上 23 83 1011
17 18:00 南西 6 10km以上 23 83 1010
17 17:00 南西 6 10km以上 25 74 1010
17 16:00 南南西 6 10km以上 26 70 1010
17 15:00 5 10km以上 26 74 1010
17 14:00 南南西 4 10km以上 26 74 1011
17 13:00 北東 2 10km以上 26 74 1011
17 12:00 北西 2 10km以上 27 70 1012
17 11:00 南南西 2 10km以上 27 70 1013
17 10:00 南西 3 10km以上 25 78 1013
17 09:00 南西 5 10km以上 24 78 1014
17 08:00 南西 5 10km以上 23 83 1013
17 07:00 南西 4 10km以上 23 83 1012
17 06:00 南西 4 10km以上 23 83 1012
17 04:00 南南西 3 10km以上 22 88 1011
17 03:00 南西 5 10km以上 22 88 1011
17 02:00 南南西 4 10km以上 22 88 1011
17 01:00 南南西 4 10km以上 23 83 1011
17 00:00 南南西 4 10km以上 23 78 1011
16 23:00 南西 5 10km以上 23 78 1011
16 22:00 南西 7 10km以上 23 78 1011
16 21:00 南西 7 10km以上 25 74 1010
16 20:00 南南西 7 10km以上 26 70 1010
16 19:00 南南西 5 10km以上 26 74 1009
16 18:00 南南西 5 10km以上 28 66 1009
16 17:00 2 10km以上 30 62 1008
16 16:00 北東 3 10km以上 31 59 1008
16 15:00 北東 2 10km以上 30 59 1009
16 14:00 2 10km以上 30 59 1010
16 13:00 東南東 2 10km以上 29 62 1011
16 12:00 南東 3 10km以上 28 66 1012
16 11:00 東南東 2 10km以上 27 66 1012
16 10:00 南東 2 10km以上 26 70 1012
16 09:00 南南東 2 10km以上 24 78 1013
SEGU 181300Z 22009KT 9999 FEW010 SCT023 BKN090 22/19 Q1011 NOSIG RMK A2989
SEGU 181200Z 23010KT 9999 FEW010 BKN023 BKN090 22/19 Q1011 NOSIG RMK A2987
SEGU 181100Z 23008KT 9999 SCT010 BKN023 BKN090 22/19 Q1011 NOSIG RMK A2986
SEGU 181000Z 23006KT 9999 SCT010 BKN023 BKN090 21/19 Q1011 NOSIG RMK A2985
SEGU 180900Z 25005KT 9999 FEW010 BKN023 BKN090 22/19 Q1011 NOSIG RMK A2986
SEGU 180800Z 26005KT 9999 FEW010 BKN023 BKN090 22/19 Q1011 NOSIG RMK A2986
SEGU 180700Z 23009KT 9999 FEW010 BKN023 BKN090 22/19 Q1011 NOSIG RMK A2987
SEGU 180600Z 22011KT 9999 FEW010 BKN023 BKN090 22/19 Q1012 NOSIG RMK A2989
SEGU 180500Z 22009KT 9999 SCT010 BKN020 BKN090 22/19 Q1012 NOSIG RMK A2991
SEGU 180400Z 22011KT 9999 FEW010 BKN020 BKN090 22/19 Q1012 NOSIG RMK A2990
SEGU 180300Z 23013KT 9999 FEW010 SCT020 BKN090 22/19 Q1012 NOSIG RMK A2990
SEGU 180200Z 22010KT 9999 SCT010 BKN020 BKN090 22/19 Q1012 NOSIG RMK A2990
SEGU 180100Z 22010KT 9999 SCT010 BKN020 BKN090 23/20 Q1012 NOSIG RMK A2989
SEGU 180000Z 23013KT 9999 FEW010 BKN023 BKN090 23/20 Q1011 NOSIG RMK A2986
SEGU 172300Z 22012KT 9999 FEW010 BKN026 BKN100 23/20 Q1010 NOSIG RMK A2985
SEGU 172200Z 23012KT 9999 FEW020 BKN026 OVC100 25/20 Q1010 NOSIG RMK A2984
SEGU 172100Z 21011KT 9999 FEW020 BKN026 OVC100 26/20 Q1010 NOSIG RMK A2982
SEGU 172000Z 19009KT 9999 FEW020 BKN026 OVC100 26/21 Q1010 NOSIG RMK A2983
SEGU 171900Z 21008KT 9999 FEW020 BKN026 OVC100 26/21 Q1011 NOSIG RMK A2985
SEGU 171800Z 04003KT 9999 FEW020 BKN026 OVC100 26/21 Q1011 NOSIG RMK A2988
SEGU 171700Z 32004KT 320V060 9999 FEW020 BKN026 BKN100 27/21 Q1012 NOSIG RMK A2990
SEGU 171600Z 21004KT 070V230 9999 FEW020 SCT026 BKN100 27/21 Q1013 NOSIG RMK A2992
SEGU 171500Z 22006KT 180V250 9999 FEW010 BKN023 BKN090 25/21 Q1013 NOSIG RMK A2994
SEGU 171400Z 23009KT 9999 FEW010 BKN023 OVC090 24/20 Q1014 NOSIG RMK A2994
SEGU 171300Z 22010KT 9999 FEW010 BKN023 OVC090 23/20 Q1013 NOSIG RMK A2992
SEGU 171200Z 22008KT 9999 FEW008 BKN026 OVC100 23/20 Q1012 NOSIG RMK A2990
SEGU 171100Z 22007KT 9999 FEW010 BKN026 OVC100 23/20 Q1012 NOSIG RMK A2988
SEGU 170900Z 21006KT 9999 FEW010 BKN026 BKN100 22/20 Q1011 NOSIG RMK A2986
SEGU 170800Z 22009KT 9999 FEW010 BKN030 BKN100 22/20 Q1011 NOSIG RMK A2985
SEGU 170700Z 21008KT 9999 FEW010 SCT033 BKN100 22/20 Q1011 NOSIG RMK A2986
SEGU 170600Z 20007KT 9999 FEW033 BKN100 23/20 Q1011 NOSIG RMK A2987
SEGU 170500Z 21007KT 9999 FEW030 BKN100 23/19 Q1011 NOSIG RMK A2987
SEGU 170400Z 23010KT 9999 FEW030 BKN100 23/19 Q1011 NOSIG RMK A2986
SEGU 170300Z 22013KT 9999 FEW030 BKN100 23/19 Q1011 NOSIG RMK A2987
SEGU 170200Z 22014KT 9999 FEW030 BKN100 25/20 Q1010 NOSIG RMK A2985
SEGU 170100Z 21013KT 9999 FEW030 SCT100 26/20 Q1010 NOSIG RMK A2983
SEGU 170000Z 21009KT 9999 FEW030 SCT200 26/21 Q1009 NOSIG RMK A2981
SEGU 162300Z 21009KT 9999 SCT030 BKN200 28/21 Q1009 NOSIG RMK A2980
SEGU 162200Z 08004KT 050V120 9999 FEW023 BKN200 30/22 Q1008 NOSIG RMK A2979
SEGU 162100Z 05005KT 350V100 9999 FEW023 BKN200 31/22 Q1008 NOSIG RMK A2979
SEGU 162000Z 05004KT 350V120 9999 FEW023 BKN200 30/21 Q1009 NOSIG RMK A2980
SEGU 161900Z 08004KT 040V170 9999 SCT023 BKN200 30/21 Q1010 NOSIG RMK A2982
SEGU 161800Z 12003KT 080V150 9999 SCT023 BKN200 29/21 Q1011 NOSIG RMK A2985
SEGU 161700Z 14006KT 060V150 9999 SCT023 BKN200 28/21 Q1012 NOSIG RMK A2988
SEGU 161600Z 12003KT 070V160 9999 FEW023 SCT030 BKN100 27/20 Q1012 NOSIG RMK A2990
SEGU 161500Z 13004KT 080V180 9999 FEW020 SCT030 BKN100 26/20 Q1012 NOSIG RMK A2991
SEGU 161400Z 16003KT 150V210 9999 FEW010 BKN030 OVC090 24/20 Q1013 NOSIG RMK A2992